createdAt,value
2022-09-04T00:01:44.924Z,28.22
2022-09-04T00:04:18.508Z,28.21
2022-09-04T00:06:50.477Z,28.20
2022-09-04T00:09:20.045Z,28.21
2022-09-04T00:11:50.182Z,28.21
2022-09-04T00:14:19.762Z,28.16
2022-09-04T00:16:51.350Z,28.21
2022-09-04T00:19:24.139Z,28.21
2022-09-04T00:21:53.387Z,28.05
2022-09-04T00:24:23.239Z,28.20
2022-09-04T00:26:54.448Z,28.20
2022-09-04T00:29:25.294Z,28.21
2022-09-04T00:31:58.276Z,27.99
2022-09-04T00:34:38.744Z,28.20
2022-09-04T00:37:07.500Z,28.20
2022-09-04T00:39:38.289Z,28.11
2022-09-04T00:42:11.280Z,28.20
2022-09-04T00:45:02.266Z,28.20
2022-09-04T00:47:40.283Z,28.20
2022-09-04T00:50:22.492Z,28.20
2022-09-04T00:52:59.798Z,28.19
2022-09-04T00:55:41.973Z,28.20
2022-09-04T00:58:25.246Z,28.14
2022-09-04T01:00:53.112Z,28.14
2022-09-04T01:03:44.119Z,28.20
2022-09-04T01:06:30.683Z,28.17
2022-09-04T01:09:06.340Z,28.19
2022-09-04T01:11:38.329Z,28.02
2022-09-04T01:14:13.356Z,28.19
2022-09-04T01:16:45.395Z,28.20
2022-09-04T01:19:29.988Z,28.19
2022-09-04T01:22:16.497Z,28.20
2022-09-04T01:25:05.712Z,28.19
2022-09-04T01:27:37.984Z,28.18
2022-09-04T01:30:10.124Z,28.17
2022-09-04T01:32:45.793Z,28.18
2022-09-04T01:35:20.093Z,28.18
2022-09-04T01:37:53.357Z,28.18
2022-09-04T01:40:37.962Z,28.18
2022-09-04T01:43:11.444Z,28.18
2022-09-04T01:45:48.484Z,28.18
2022-09-04T01:48:18.460Z,28.17
2022-09-04T01:50:47.694Z,28.18
2022-09-04T01:53:17.242Z,28.16
2022-09-04T01:55:48.842Z,28.17
2022-09-04T01:58:20.660Z,28.18
2022-09-04T02:00:57.604Z,28.19
2022-09-04T02:03:27.767Z,28.18
2022-09-04T02:06:02.739Z,28.19
2022-09-04T02:08:36.525Z,28.17
2022-09-04T02:11:08.817Z,28.17
2022-09-04T02:13:43.761Z,28.11
2022-09-04T02:16:15.507Z,28.18
2022-09-04T02:18:48.018Z,28.16
2022-09-04T02:21:19.289Z,28.17
2022-09-04T02:23:51.561Z,28.18
2022-09-04T02:26:21.595Z,28.17
2022-09-04T02:28:56.298Z,28.17
2022-09-04T02:31:29.918Z,28.18
2022-09-04T02:34:01.527Z,28.17
2022-09-04T02:36:31.546Z,28.17
2022-09-04T02:39:01.643Z,28.15
2022-09-04T02:41:34.112Z,28.16
2022-09-04T02:44:11.700Z,28.16
2022-09-04T02:46:45.612Z,28.06
2022-09-04T02:49:16.357Z,28.16
2022-09-04T02:51:54.532Z,28.17
2022-09-04T02:54:31.238Z,28.15
2022-09-04T02:57:03.198Z,28.16
2022-09-04T02:59:39.214Z,28.15
2022-09-04T03:02:08.193Z,28.17
2022-09-04T03:04:39.317Z,28.12
2022-09-04T03:07:10.774Z,28.02
2022-09-04T03:09:40.887Z,28.16
2022-09-04T03:12:26.574Z,28.17
2022-09-04T03:15:01.310Z,28.17
2022-09-04T03:17:31.016Z,28.02
2022-09-04T03:20:02.060Z,28.17
2022-09-04T03:22:31.739Z,28.17
2022-09-04T03:25:04.240Z,28.16
2022-09-04T03:27:32.753Z,28.16
2022-09-04T03:30:04.032Z,28.11
2022-09-04T03:32:36.380Z,27.94
2022-09-04T03:35:07.800Z,28.16
2022-09-04T03:37:52.855Z,28.16
2022-09-04T03:40:34.836Z,28.16
2022-09-04T03:43:16.937Z,28.16
2022-09-04T03:45:49.762Z,28.16
2022-09-04T03:48:25.267Z,28.16
2022-09-04T03:50:57.228Z,28.16
2022-09-04T03:53:30.865Z,28.16
2022-09-04T03:56:12.786Z,28.00
2022-09-04T03:58:43.795Z,28.15
2022-09-04T04:01:25.020Z,28.00
2022-09-04T04:04:06.146Z,28.14
2022-09-04T04:06:37.097Z,28.16
2022-09-04T04:09:34.947Z,28.17
2022-09-04T04:12:13.558Z,28.15
2022-09-04T04:15:00.244Z,28.15
2022-09-04T04:17:39.807Z,28.15
2022-09-04T04:20:13.235Z,28.15
2022-09-04T04:23:02.095Z,28.16
2022-09-04T04:25:48.833Z,28.15
2022-09-04T04:28:29.604Z,28.15
2022-09-04T04:31:00.574Z,28.15
2022-09-04T04:33:51.256Z,28.15
2022-09-04T04:36:22.748Z,28.15
2022-09-04T04:39:09.882Z,28.15
2022-09-04T04:41:58.098Z,28.15
2022-09-04T04:44:50.594Z,28.09
2022-09-04T04:47:22.945Z,28.13
2022-09-04T04:49:58.874Z,28.13
2022-09-04T04:52:30.394Z,28.13
2022-09-04T04:55:17.214Z,28.07
2022-09-04T04:57:49.956Z,28.13
2022-09-04T05:00:25.315Z,28.12
2022-09-04T05:03:02.082Z,28.12
2022-09-04T05:05:47.605Z,27.88
2022-09-04T05:08:20.185Z,28.12
2022-09-04T05:10:48.767Z,28.13
2022-09-04T05:13:20.835Z,28.10
2022-09-04T05:16:07.956Z,28.13
2022-09-04T05:18:37.546Z,28.13
2022-09-04T05:21:10.121Z,28.12
2022-09-04T05:23:40.133Z,28.12
2022-09-04T05:26:12.576Z,28.13
2022-09-04T05:28:46.493Z,28.05
2022-09-04T05:31:19.395Z,28.07
2022-09-04T05:33:52.666Z,28.07
2022-09-04T05:36:25.521Z,28.14
2022-09-04T05:38:58.666Z,28.13
2022-09-04T05:41:36.455Z,28.14
2022-09-04T05:44:13.994Z,28.12
2022-09-04T05:46:46.501Z,28.12
2022-09-04T05:49:25.723Z,28.13
2022-09-04T05:52:19.031Z,28.12
2022-09-04T05:55:00.163Z,28.12
2022-09-04T05:57:33.824Z,28.12
2022-09-04T06:00:09.852Z,28.11
2022-09-04T06:03:11.533Z,28.12
2022-09-04T06:05:58.814Z,28.11
2022-09-04T06:09:08.156Z,28.11
2022-09-04T06:11:42.458Z,28.09
2022-09-04T06:14:19.338Z,28.10
2022-09-04T06:16:53.411Z,28.10
2022-09-04T06:19:48.814Z,28.10
2022-09-04T06:23:02.364Z,28.10
2022-09-04T06:25:40.346Z,28.10
2022-09-04T06:28:38.510Z,28.10
2022-09-04T06:31:10.687Z,28.10
2022-09-04T06:33:50.741Z,28.11
2022-09-04T06:36:30.535Z,28.11
2022-09-04T06:39:19.994Z,28.10
2022-09-04T06:41:57.796Z,28.10
2022-09-04T06:44:34.124Z,28.10
2022-09-04T06:47:07.046Z,28.10
2022-09-04T06:49:38.809Z,28.11
2022-09-04T06:52:13.512Z,28.06
2022-09-04T06:54:48.493Z,28.10
2022-09-04T06:57:38.588Z,28.11
2022-09-04T07:00:10.522Z,28.09
2022-09-04T07:02:57.645Z,28.11
2022-09-04T07:05:29.184Z,28.12
2022-09-04T07:08:02.110Z,28.11
2022-09-04T07:10:31.754Z,28.05
2022-09-04T07:13:48.029Z,28.12
2022-09-04T07:16:25.855Z,27.89
2022-09-04T07:19:11.698Z,28.09
2022-09-04T07:21:44.175Z,28.09
2022-09-04T07:24:31.907Z,28.05
2022-09-04T07:27:03.011Z,28.10
2022-09-04T07:29:32.743Z,28.10
2022-09-04T07:32:04.660Z,28.02
2022-09-04T07:34:37.636Z,28.11
2022-09-04T07:37:07.441Z,28.09
2022-09-04T07:39:38.044Z,28.09
2022-09-04T07:42:08.970Z,28.11
2022-09-04T07:44:42.481Z,28.11
2022-09-04T07:47:14.398Z,28.04
2022-09-04T07:49:49.257Z,27.85
2022-09-04T07:52:23.755Z,28.07
2022-09-04T07:55:13.923Z,28.10
2022-09-04T07:57:52.857Z,28.04
2022-09-04T08:00:22.763Z,27.88
2022-09-04T08:03:04.775Z,28.10
2022-09-04T08:05:32.935Z,28.09
2022-09-04T08:08:39.736Z,28.10
2022-09-04T08:11:15.018Z,28.10
2022-09-04T08:13:50.788Z,28.11
2022-09-04T08:16:20.489Z,28.09
2022-09-04T08:19:01.563Z,28.10
2022-09-04T08:21:30.530Z,27.92
2022-09-04T08:24:19.180Z,28.10
2022-09-04T08:26:52.625Z,28.10
2022-09-04T08:29:31.190Z,27.99
2022-09-04T08:32:08.921Z,27.89
2022-09-04T08:34:59.718Z,28.08
2022-09-04T08:37:28.568Z,28.10
2022-09-04T08:40:04.577Z,28.10
2022-09-04T08:42:58.306Z,28.10
2022-09-04T08:45:49.937Z,27.84
2022-09-04T08:49:11.648Z,28.02
2022-09-04T08:51:52.323Z,28.02
2022-09-04T08:54:59.136Z,28.09
2022-09-04T08:57:43.046Z,28.08
2022-09-04T09:00:11.839Z,28.09
2022-09-04T09:03:21.183Z,28.09
2022-09-04T09:06:20.895Z,28.08
2022-09-04T09:09:17.424Z,28.09
2022-09-04T09:12:41.598Z,28.09
2022-09-04T09:15:38.457Z,28.08
2022-09-04T09:18:18.063Z,28.00
2022-09-04T09:20:47.493Z,28.08
2022-09-04T09:23:22.195Z,28.07
2022-09-04T09:25:53.198Z,28.08
2022-09-04T09:28:59.594Z,28.09
2022-09-04T09:32:07.197Z,28.08
2022-09-04T09:35:16.860Z,28.08
2022-09-04T09:38:20.338Z,28.07
2022-09-04T09:41:21.962Z,28.08
2022-09-04T09:44:26.718Z,28.08
2022-09-04T09:47:13.371Z,28.07
2022-09-04T09:50:03.083Z,28.08
2022-09-04T09:53:10.336Z,28.08
2022-09-04T09:56:03.356Z,28.08
2022-09-04T09:59:15.869Z,28.08
2022-09-04T10:01:58.900Z,28.07
2022-09-04T10:05:05.056Z,28.08
2022-09-04T10:07:54.148Z,28.10
2022-09-04T10:10:58.172Z,28.08
2022-09-04T10:13:50.057Z,28.08
2022-09-04T10:16:30.238Z,28.10
2022-09-04T10:19:18.321Z,27.84
2022-09-04T10:22:16.818Z,28.10
2022-09-04T10:24:57.559Z,28.09
2022-09-04T10:27:52.518Z,28.09
2022-09-04T10:30:20.407Z,28.09
2022-09-04T10:33:19.235Z,28.09
2022-09-04T10:35:55.004Z,28.09
2022-09-04T10:38:58.807Z,28.10
2022-09-04T10:41:36.900Z,28.09
2022-09-04T10:44:37.587Z,28.09
2022-09-04T10:47:12.465Z,27.94
2022-09-04T10:49:49.098Z,28.09
2022-09-04T10:53:03.762Z,27.89
2022-09-04T10:55:42.454Z,28.10
2022-09-04T10:58:42.247Z,28.10
2022-09-04T11:01:38.759Z,28.10
2022-09-04T11:04:45.780Z,28.10
2022-09-04T11:07:30.357Z,28.09
2022-09-04T11:10:13.822Z,28.10
2022-09-04T11:12:53.139Z,28.11
2022-09-04T11:15:43.171Z,28.09
2022-09-04T11:18:35.375Z,28.12
2022-09-04T11:21:31.101Z,28.13
2022-09-04T11:24:23.059Z,28.13
2022-09-04T11:27:09.961Z,28.12
2022-09-04T11:29:47.872Z,28.15
2022-09-04T11:32:27.173Z,28.17
2022-09-04T11:35:29.776Z,28.17
2022-09-04T11:38:03.316Z,28.19
2022-09-04T11:41:07.869Z,28.20
2022-09-04T11:43:45.279Z,28.20
2022-09-04T11:46:27.416Z,28.20
2022-09-04T11:49:07.881Z,28.19
2022-09-04T11:52:04.032Z,28.20
2022-09-04T11:55:06.984Z,28.20
2022-09-04T11:57:43.914Z,28.19
2022-09-04T12:00:12.571Z,28.18
2022-09-04T12:03:02.201Z,28.19
2022-09-04T12:05:44.281Z,28.19
2022-09-04T12:08:24.928Z,28.13
2022-09-04T12:11:00.447Z,28.18
2022-09-04T12:14:03.755Z,28.12
2022-09-04T12:17:15.487Z,28.18
2022-09-04T12:20:05.080Z,27.94
2022-09-04T12:23:02.671Z,28.19
2022-09-04T12:26:01.503Z,28.19
2022-09-04T12:28:55.186Z,28.00
2022-09-04T12:31:49.326Z,28.14
2022-09-04T12:34:33.883Z,28.21
2022-09-04T12:37:13.512Z,27.99
2022-09-04T12:40:09.612Z,28.22
2022-09-04T12:42:38.995Z,28.22
2022-09-04T12:45:12.051Z,28.23
2022-09-04T12:47:46.980Z,28.25
2022-09-04T12:50:19.468Z,28.25
2022-09-04T12:52:55.203Z,28.26
2022-09-04T12:55:25.581Z,28.27
2022-09-04T12:58:02.950Z,28.28
2022-09-04T13:00:40.933Z,28.29
2022-09-04T13:03:21.273Z,28.28
2022-09-04T13:06:04.321Z,28.30
2022-09-04T13:08:39.205Z,28.29
2022-09-04T13:11:15.417Z,28.24
2022-09-04T13:13:48.297Z,28.30
2022-09-04T13:16:19.937Z,28.30
2022-09-04T13:18:58.747Z,28.25
2022-09-04T13:21:33.510Z,28.32
2022-09-04T13:24:11.759Z,28.32
2022-09-04T13:26:47.827Z,28.31
2022-09-04T13:29:19.643Z,28.30
2022-09-04T13:32:13.110Z,28.32
2022-09-04T13:34:53.883Z,28.23
2022-09-04T13:37:23.854Z,28.32
2022-09-04T13:40:04.917Z,28.14
2022-09-04T13:43:05.879Z,28.30
2022-09-04T13:45:33.976Z,28.29
2022-09-04T13:48:03.461Z,28.29
2022-09-04T13:50:34.398Z,28.28
2022-09-04T13:53:03.545Z,28.25
2022-09-04T13:55:33.637Z,28.29
2022-09-04T13:58:05.832Z,28.28
2022-09-04T14:00:33.650Z,28.27
2022-09-04T14:03:03.279Z,28.26
2022-09-04T14:05:33.309Z,28.28
2022-09-04T14:08:02.873Z,28.26
2022-09-04T14:10:59.516Z,28.21
2022-09-04T14:13:37.884Z,28.04
2022-09-04T14:16:08.839Z,28.25
2022-09-04T14:18:57.376Z,28.26
2022-09-04T14:21:34.821Z,28.25
2022-09-04T14:24:04.676Z,28.25
2022-09-04T14:26:36.869Z,28.24
2022-09-04T14:29:08.659Z,28.25
2022-09-04T14:31:42.081Z,28.25
2022-09-04T14:34:17.165Z,28.26
2022-09-04T14:36:49.851Z,28.25
2022-09-04T14:39:21.193Z,28.21
2022-09-04T14:42:00.276Z,28.25
2022-09-04T14:44:35.932Z,28.24
2022-09-04T14:47:09.625Z,28.25
2022-09-04T14:49:41.783Z,28.24
2022-09-04T14:52:19.754Z,28.23
2022-09-04T14:54:48.035Z,28.23
2022-09-04T14:57:18.447Z,28.13
2022-09-04T14:59:49.308Z,28.24
2022-09-04T15:02:21.130Z,28.23
2022-09-04T15:04:51.238Z,28.23
2022-09-04T15:07:32.803Z,28.15
2022-09-04T15:10:10.536Z,28.12
2022-09-04T15:12:39.714Z,28.21
2022-09-04T15:15:10.381Z,28.19
2022-09-04T15:17:39.533Z,28.15
2022-09-04T15:20:09.112Z,28.40
2022-09-04T15:22:40.968Z,28.42
2022-09-04T15:25:10.095Z,28.38
2022-09-04T15:27:44.266Z,28.46
2022-09-04T15:30:18.954Z,28.49
2022-09-04T15:32:46.827Z,28.50
2022-09-04T15:35:17.283Z,28.47
2022-09-04T15:37:48.282Z,28.55
2022-09-04T15:40:22.926Z,28.58
2022-09-04T15:42:58.668Z,28.60
2022-09-04T15:45:30.508Z,28.52
2022-09-04T15:48:30.373Z,28.62
2022-09-04T15:51:04.963Z,28.61
2022-09-04T15:53:35.734Z,28.59
2022-09-04T15:56:09.536Z,28.58
2022-09-04T15:58:43.677Z,28.55
2022-09-04T16:01:14.926Z,28.48
2022-09-04T16:04:01.329Z,28.53
2022-09-04T16:06:32.210Z,28.49
2022-09-04T16:09:03.554Z,28.27
2022-09-04T16:11:34.269Z,28.47
2022-09-04T16:14:03.122Z,28.46
2022-09-04T16:16:34.101Z,28.47
2022-09-04T16:19:05.548Z,28.46
2022-09-04T16:21:41.296Z,28.47
2022-09-04T16:24:13.327Z,28.46
2022-09-04T16:26:41.079Z,28.46
2022-09-04T16:29:12.354Z,28.45
2022-09-04T16:31:40.424Z,28.46
2022-09-04T16:34:16.416Z,28.39
2022-09-04T16:36:45.730Z,28.46
2022-09-04T16:39:22.844Z,28.46
2022-09-04T16:41:52.288Z,28.47
2022-09-04T16:44:25.918Z,28.46
2022-09-04T16:47:02.547Z,28.47
2022-09-04T16:49:34.893Z,28.26
2022-09-04T16:52:23.989Z,28.47
2022-09-04T16:54:54.938Z,28.49
2022-09-04T16:57:27.556Z,28.49
2022-09-04T16:59:57.251Z,28.49
2022-09-04T17:02:33.542Z,28.49
2022-09-04T17:05:13.368Z,28.46
2022-09-04T17:07:42.962Z,28.46
2022-09-04T17:10:25.791Z,28.45
2022-09-04T17:12:55.164Z,28.45
2022-09-04T17:15:27.240Z,28.43
2022-09-04T17:17:56.283Z,28.43
2022-09-04T17:20:45.368Z,28.42
2022-09-04T17:28:59.622Z,28.41
2022-09-04T17:29:15.232Z,28.37
2022-09-04T17:29:29.630Z,28.45
2022-09-04T17:31:53.379Z,28.47
2022-09-04T17:40:43.137Z,28.39
2022-09-04T17:40:52.075Z,28.35
2022-09-04T17:40:56.290Z,28.41
2022-09-04T17:43:22.701Z,28.51
2022-09-04T17:45:52.578Z,28.52
2022-09-04T17:48:24.155Z,28.53
2022-09-04T17:50:53.808Z,28.51
2022-09-04T17:53:34.009Z,28.45
2022-09-04T17:56:07.048Z,28.55
2022-09-04T17:58:37.935Z,28.57
2022-09-04T18:01:14.330Z,28.57
2022-09-04T18:04:19.763Z,28.58
2022-09-04T18:06:37.632Z,28.36
2022-09-04T18:09:10.923Z,28.53
2022-09-04T18:11:41.380Z,28.55
2022-09-04T18:14:13.088Z,28.67
2022-09-04T18:17:12.068Z,28.63
2022-09-04T18:19:43.537Z,28.72
2022-09-04T18:22:26.769Z,28.71
2022-09-04T18:25:16.673Z,28.69
2022-09-04T18:28:05.969Z,28.67
2022-09-04T18:37:05.277Z,28.62
2022-09-04T18:37:17.996Z,28.60
2022-09-04T18:37:24.738Z,28.61
2022-09-04T18:39:32.410Z,28.57
2022-09-04T18:50:24.956Z,28.55
2022-09-04T18:50:32.730Z,28.49
2022-09-04T18:50:35.126Z,28.52
2022-09-04T18:53:51.424Z,28.47
2022-09-04T18:56:22.291Z,28.46
2022-09-04T18:59:02.347Z,28.44
2022-09-04T19:01:35.603Z,28.37
2022-09-04T19:04:30.108Z,28.42
2022-09-04T19:07:07.073Z,28.42
2022-09-04T19:09:55.868Z,28.35
2022-09-04T19:12:25.065Z,28.40
2022-09-04T19:15:04.029Z,28.41
2022-09-04T19:17:34.479Z,28.38
2022-09-04T19:20:06.082Z,28.39
2022-09-04T19:22:38.052Z,28.37
2022-09-04T19:25:07.453Z,28.38
2022-09-04T19:27:38.319Z,28.37
2022-09-04T19:30:20.098Z,28.37
2022-09-04T19:33:02.951Z,28.35
2022-09-04T19:35:36.714Z,28.34
2022-09-04T19:41:06.432Z,28.09
2022-09-04T19:46:04.885Z,28.33
2022-09-04T19:46:09.184Z,28.32
2022-09-04T19:46:43.575Z,28.34
2022-09-04T19:51:10.749Z,28.34
2022-09-04T19:53:23.060Z,28.33
2022-09-04T19:55:24.491Z,28.32
2022-09-04T19:57:48.845Z,28.23
2022-09-04T20:00:42.450Z,28.32
2022-09-04T20:03:29.865Z,28.31
2022-09-04T20:06:09.300Z,28.30
2022-09-04T20:08:51.985Z,28.14
2022-09-04T20:11:32.420Z,28.29
2022-09-04T20:14:14.301Z,28.30
2022-09-04T20:16:48.638Z,28.30
2022-09-04T20:19:27.675Z,28.31
2022-09-04T20:21:57.739Z,28.31
2022-09-04T20:24:27.968Z,28.30
2022-09-04T20:26:57.692Z,28.31
2022-09-04T20:29:26.122Z,28.30
2022-09-04T20:31:55.157Z,28.31
2022-09-04T20:34:29.438Z,28.32
2022-09-04T20:37:19.288Z,28.23
2022-09-04T20:39:50.482Z,28.31
2022-09-04T20:42:20.967Z,28.30
2022-09-04T20:47:14.873Z,28.31
2022-09-04T20:52:45.458Z,28.31
2022-09-04T20:52:58.600Z,28.33
2022-09-04T20:53:24.470Z,28.34
2022-09-04T20:56:07.903Z,28.34
2022-09-04T21:03:06.398Z,28.35
2022-09-04T21:03:10.361Z,28.28
2022-09-04T21:04:43.212Z,28.35
2022-09-04T21:07:13.865Z,28.36
2022-09-04T21:09:51.293Z,28.15
2022-09-04T21:12:30.030Z,28.37
2022-09-04T21:15:00.901Z,28.31
2022-09-04T21:17:53.066Z,28.38
2022-09-04T21:20:36.163Z,28.40
2022-09-04T21:23:35.646Z,28.40
2022-09-04T21:26:07.091Z,28.41
2022-09-04T21:28:46.711Z,28.40
2022-09-04T21:31:20.799Z,28.19
2022-09-04T21:33:55.431Z,28.42
2022-09-04T21:36:27.582Z,28.43
2022-09-04T21:39:21.156Z,28.37
2022-09-04T21:42:01.737Z,28.36
2022-09-04T21:45:07.429Z,27.54
2022-09-04T21:47:51.504Z,28.35
2022-09-04T21:50:58.962Z,28.41
2022-09-04T21:54:24.966Z,28.41
2022-09-04T22:02:27.916Z,28.41
2022-09-04T22:02:41.327Z,28.40
2022-09-04T22:03:30.066Z,28.39
2022-09-04T22:06:04.459Z,28.18
2022-09-04T22:13:30.722Z,28.33
2022-09-04T22:13:34.151Z,28.39
2022-09-04T22:14:31.183Z,28.18
2022-09-04T22:17:08.590Z,28.38
2022-09-04T22:20:07.284Z,28.38
2022-09-04T22:22:57.331Z,28.38
2022-09-04T22:26:09.929Z,28.22
2022-09-04T22:29:02.688Z,28.37
2022-09-04T22:32:01.596Z,28.37
2022-09-04T22:34:48.172Z,28.31
2022-09-04T22:37:45.380Z,28.36
2022-09-04T22:40:25.968Z,28.37
2022-09-04T22:43:01.438Z,28.37
2022-09-04T22:46:02.422Z,28.35
2022-09-04T22:49:12.455Z,28.37
2022-09-04T22:52:25.982Z,28.36
2022-09-04T22:55:09.078Z,28.35
2022-09-04T22:57:51.171Z,28.36
2022-09-04T23:00:19.127Z,28.35
2022-09-04T23:03:10.178Z,28.29
2022-09-04T23:09:07.293Z,28.35
2022-09-04T23:13:48.167Z,28.14
2022-09-04T23:13:58.276Z,28.33
2022-09-04T23:15:17.173Z,28.27
2022-09-04T23:19:55.310Z,28.33
2022-09-04T23:26:33.373Z,28.34
2022-09-04T23:26:48.446Z,28.33
2022-09-04T23:27:01.644Z,28.33
2022-09-04T23:29:52.597Z,28.32
2022-09-04T23:32:36.765Z,28.31
2022-09-04T23:35:16.766Z,28.32
2022-09-04T23:38:10.079Z,28.31
2022-09-04T23:40:42.372Z,28.32
2022-09-04T23:43:23.004Z,28.32
2022-09-04T23:46:19.724Z,28.32
2022-09-04T23:49:19.648Z,28.31
2022-09-04T23:51:49.575Z,28.31
2022-09-04T23:54:39.635Z,28.31
2022-09-04T23:57:24.182Z,28.31
2022-09-04T23:59:57.349Z,28.31
